Reklama

Seznam meteostanic a jejich METAR

Vyhledat místa podle abecedy:
A B C D E F G H I J K L M N O P Q R S T U V W X Y Z

Filtrovat:

ID stanice:
a/nebo
Název místa (fulltext):
 
Místo (ID)Naposledy načteno 
Šerák (Serak) 31.05.2020 01:00 UTC Zobrazit data
Místo: Šerák
Teplota: 2 °C (pocitová: -6.4 °C)
Vítr: 5 m/s z(e) 360°
Počasí: déšť
Dohlednost: 400 m
Zákl. oblačnosti: 8/8 30 m
Vlhkost: 100%
Svratouch (Svratouch) 31.05.2020 01:00 UTC Zobrazit data
Místo: Svratouch
Teplota: 8 °C (pocitová: 2 °C)
Vítr: 5 m/s z(e) 350°
Počasí: zataženo
Dohlednost: 35 km
Zákl. oblačnosti: 8/8 2700 m
Vlhkost: 66%
Saipan Island (PGSN) 31.05.2020 00:54 UTC Zobrazit METAR
PGSN 310054Z 09013KT 10SM FEW024 32/23 A2999 RMK AO2 SLP177 T03170233
Salzburg (LOWS) 31.05.2020 00:50 UTC Zobrazit METAR
LOWS 310050Z AUTO 17003KT 9999 FEW080 05/04 Q1020
Samara (UWWW) Zatím nenačteno  
San Andres Island (SKSP) 31.05.2020 01:00 UTC Zobrazit METAR
SKSP 310100Z 00000KT 9999 DZ FEW010 OVC070 24/24 A2986 RETSRA
San Jose (MRPV) 31.05.2020 00:00 UTC Zobrazit METAR
MRPV 310000Z 34003KT 9999 -RA FEW010 OVC120 21/19 A3005 NOSIG
San Juan (TJSJ) 31.05.2020 00:56 UTC Zobrazit METAR
TJSJ 310056Z 10006KT 9SM FEW035 28/24 A3002 RMK AO2 SLP165 HZ ALQDS T02830239 $
San Salvador (MSLP) 30.05.2020 23:50 UTC Zobrazit METAR
MSLP 302350Z 06008KT 9999 -RA FEW020 BKN030 25/23 Q1008 A2978 TEMPO 5000 RA
Sanaa (OYSN) 08.02.2017 13:00 UTC Zobrazit METAR
OYSN 081300Z 03008KT 9999 FEW030 25/M05 Q1022
Santiago (SCEL) 31.05.2020 01:00 UTC Zobrazit METAR
SCEL 310100Z 36002KT 7000 NSC 10/06 Q1018 NOSIG
Santiago (LEST) 31.05.2020 01:00 UTC Zobrazit METAR
LEST 310100Z VRB02KT CAVOK 15/14 Q1011 NOSIG
Santo Domingo (MDHE) 08.04.2012 12:00 UTC  
Santorini (LGSR) 30.05.2020 14:50 UTC Zobrazit METAR
LGSR 301450Z 11007KT 9999 FEW018 23/11 Q1016
Sao Tome (FPST) 23.05.2020 12:00 UTC Zobrazit METAR
FPST 231200Z 14006KT 9999 FEW020 BKN040 30/26 Q1014 NOSIG
Sarajevo (LQSA) 30.05.2020 13:00 UTC Zobrazit METAR
LQSA 301300Z 34009KT 300V050 9999 FEW030 SCT045 16/10 Q1016 NOSIG
Saratov (UWSS) 06.03.2017 17:00 UTC Zobrazit METAR
UWSS 061700Z CAVOK 04/00 Q1024 R12/190055 NOSIG RMK QFE756
Sarmellek (LHSM) 31.05.2020 00:45 UTC Zobrazit METAR
LHSM 310045Z AUTO 29004KT CAVOK 10/07 Q1017
Seinajoki (EFSI) 31.05.2020 00:50 UTC Zobrazit METAR
EFSI 310050Z AUTO 31003KT CAVOK 05/02 Q1032
Seoul/Incheon (RKSI) 31.05.2020 01:00 UTC Zobrazit METAR
RKSI 310100Z 32006KT CAVOK 20/13 Q1013 NOSIG
Seville (LEZL) 31.05.2020 01:00 UTC Zobrazit METAR
LEZL 310100Z AUTO 32004KT 280V350 CAVOK 22/11 Q1010
Seychelles (FSIA) 30.05.2020 22:00 UTC Zobrazit METAR
FSIA 302200Z 08013KT 040V110 9999 BKN018 27/25 Q1010 TEMPO -SHRA
Shymkent (UAII) Zatím nenačteno  
Siauliai (EYSA) 31.05.2020 00:50 UTC Zobrazit METAR
EYSA 310050Z AUTO 01013KT CAVOK 11/05 Q1017 BLU NOSIG
Sibiu (LRSB) 31.05.2020 01:00 UTC Zobrazit METAR
LRSB 310100Z AUTO 25005KT 9999 OVC072/// 10/06 Q1012
Simferopol' (UKFF) Zatím nenačteno  
Singapore (WSSS) 30.05.2020 21:00 UTC Zobrazit METAR
WSSS 302100Z VRB01KT 9999 FEW018 SCT350 27/25 Q1011 NOSIG
Skopje (LWSK) 31.05.2020 01:00 UTC Zobrazit METAR
LWSK 310100Z 36003KT 9999 FEW043 BKN100 10/09 Q1016 NOSIG
Soderhamn (ESNY) Zatím nenačteno  
Sofia (LBSF) 31.05.2020 01:00 UTC Zobrazit METAR
LBSF 310100Z VRB02KT 9999 OVC045 10/09 Q1015 NOSIG
Sonderborg (EKSB) 30.05.2020 09:50 UTC Zobrazit METAR
EKSB 300950Z 33004KT 290V030 CAVOK 18/09 Q1027
Split (LDSP) 31.05.2020 01:00 UTC Zobrazit METAR
LDSP 310100Z AUTO 35005KT 310V030 CAVOK 15/07 Q1015
St. Denis (FMEE) 31.05.2020 01:00 UTC Zobrazit METAR
FMEE 310100Z AUTO 17008KT CAVOK 20/14 Q1018 NOSIG
St. Georges (TGPY) 31.05.2020 01:00 UTC Zobrazit METAR
TGPY 310100Z 08012KT 9999 SCT020 BKN040 28/24 Q1014 NOSIG
St. Johns (TAPA) 31.05.2020 01:00 UTC Zobrazit METAR
TAPA 310100Z 09009KT 060V130 9999 SCT018 SCT036 28/23 Q1017 NOSIG
St. Petersburg (ULLI) Zatím nenačteno  
St. Pierre Island (LFVP) 29.05.2020 21:00 UTC Zobrazit METAR
LFVP 292100Z 24014KT 2500 BR BKN002 09/08 Q1014 NOSIG
Stavanger (ENZV) 31.05.2020 00:50 UTC Zobrazit METAR
ENZV 310050Z VRB02KT CAVOK 10/06 Q1030
Stockholm (ESSA) 31.05.2020 00:50 UTC Zobrazit METAR
ESSA 310050Z 36010KT CAVOK 07/04 Q1030 NOSIG
Strasbourg (LFST) 31.05.2020 01:00 UTC Zobrazit METAR
LFST 310100Z AUTO 02009KT CAVOK 12/04 Q1019 NOSIG
Stuttgart (EDDS) 31.05.2020 00:50 UTC Zobrazit METAR
EDDS 310050Z 03006KT CAVOK 10/02 Q1020
Reklama

Lunární kalendář

  • 05.06.Fáze měsíce uplnek
  • 13.06.Fáze měsíce posl_ctvrt
  • 21.06.Fáze měsíce nov
  • 28.06.Fáze měsíce prv_ctvrt



Reklama
Meteodomečky

Počasí na Váš email

Emaily jsou bez reklamy a bez spamu



Odhlásit newsletter

Reklama


Další české internetové stránky (nejen) o počasí najdete v katalogu TOPlist - weby o počasí nebo vyhledejte na internetu, co jste tu na 🌞 Slunečnu ⛅ zatím nenašli:

Reklama